Time;durP1;ratioP1;P1;durP2;ratioP2;P2;SDS_P1;SDS_P2;PMS_P1;PMS_P2;Temp;Humidity;BMP_temperature;BMP_pressure;BME280_temperature;BME280_humidity;BME280_pressure;Samples;Min_cycle;Max_cycle;Signal;HPM_P1;HPM_P2
2021/04/01 00:01:44;;;;;;;6.30;4.80;;;14.80;77.20;;;;;;5053039;28;20175;-64
2021/04/01 00:04:11;;;;;;;8.33;5.33;;;14.70;77.30;;;;;;5052738;28;20246;-64
2021/04/01 00:06:36;;;;;;;5.77;4.73;;;14.70;78.20;;;;;;5052907;28;20423;-63
2021/04/01 00:09:03;;;;;;;10.03;5.20;;;14.70;78.10;;;;;;5052633;28;20479;-63
2021/04/01 00:11:28;;;;;;;9.97;5.10;;;14.60;77.30;;;;;;5035175;28;20174;-64
2021/04/01 00:13:55;;;;;;;7.87;5.07;;;14.60;78.60;;;;;;5053068;28;20400;-63
2021/04/01 00:16:22;;;;;;;6.50;4.60;;;14.60;78.60;;;;;;5052146;28;20184;-63
2021/04/01 00:18:47;;;;;;;6.93;5.40;;;14.60;78.30;;;;;;5055002;28;20415;-64
2021/04/01 00:21:13;;;;;;;7.03;5.10;;;14.70;78.30;;;;;;5052783;28;20457;-65
2021/04/01 00:23:38;;;;;;;9.20;5.43;;;14.50;78.20;;;;;;5052686;28;20176;-64
2021/04/01 00:26:05;;;;;;;8.17;5.00;;;14.40;78.60;;;;;;5053007;28;20165;-64
2021/04/01 00:28:30;;;;;;;8.00;4.97;;;14.40;78.30;;;;;;5052667;28;20655;-64
2021/04/01 00:30:56;;;;;;;6.23;5.30;;;14.40;79.10;;;;;;5052938;28;20436;-64
2021/04/01 00:33:21;;;;;;;9.73;5.30;;;14.60;79.10;;;;;;5053840;28;20238;-65
2021/04/01 00:35:47;;;;;;;6.47;4.70;;;14.60;78.70;;;;;;5056663;28;20169;-64
2021/04/01 00:38:13;;;;;;;6.80;5.47;;;14.70;78.50;;;;;;5056694;28;20198;-64
2021/04/01 00:40:38;;;;;;;7.70;5.50;;;14.70;78.80;;;;;;5057508;28;20224;-64
2021/04/01 00:43:04;;;;;;;7.93;5.63;;;14.70;79.20;;;;;;5057149;28;20170;-64
2021/04/01 00:45:29;;;;;;;7.70;5.43;;;14.50;79.70;;;;;;5056259;28;20209;-64
2021/04/01 00:47:55;;;;;;;8.40;5.60;;;14.40;80.60;;;;;;5056182;28;20277;-64
2021/04/01 00:50:29;;;;;;;8.60;6.37;;;14.40;81.00;;;;;;5056830;28;20585;-64
2021/04/01 00:52:56;;;;;;;8.10;6.43;;;14.30;82.00;;;;;;5056078;28;20183;-64
2021/04/01 00:55:22;;;;;;;8.97;6.13;;;14.30;82.00;;;;;;5056524;28;20498;-64
2021/04/01 00:57:51;;;;;;;8.07;6.33;;;14.40;82.10;;;;;;5056494;28;20421;-65
2021/04/01 01:00:21;;;;;;;8.50;6.43;;;14.30;83.00;;;;;;5055973;28;20402;-65
2021/04/01 01:02:47;;;;;;;11.97;7.00;;;14.40;82.60;;;;;;5056457;28;20440;-64
2021/04/01 01:05:14;;;;;;;8.17;6.70;;;14.40;82.50;;;;;;5056101;28;20416;-64
2021/04/01 01:07:40;;;;;;;8.07;6.47;;;14.40;83.20;;;;;;5056034;28;20180;-64
2021/04/01 01:10:14;;;;;;;7.80;6.50;;;14.40;82.80;;;;;;5055108;28;20938;-64
2021/04/01 01:12:40;;;;;;;7.90;5.80;;;14.30;83.00;;;;;;5055957;28;20482;-64
2021/04/01 01:15:07;;;;;;;9.40;6.57;;;14.30;83.60;;;;;;5054696;28;20959;-65
2021/04/01 01:17:33;;;;;;;10.60;6.90;;;14.10;84.30;;;;;;5055843;28;20425;-64
2021/04/01 01:19:59;;;;;;;7.40;5.90;;;13.80;85.00;;;;;;5054643;28;21057;-65
2021/04/01 01:22:25;;;;;;;8.03;6.43;;;13.90;85.60;;;;;;5055669;28;20407;-65
2021/04/01 01:24:52;;;;;;;10.37;6.50;;;14.00;85.60;;;;;;5055663;28;20397;-64
2021/04/01 01:27:19;;;;;;;10.30;6.70;;;13.90;85.60;;;;;;5055536;28;20187;-64
2021/04/01 01:29:47;;;;;;;14.60;6.63;;;13.90;85.50;;;;;;5055248;28;20477;-64
2021/04/01 01:32:14;;;;;;;10.63;6.90;;;13.90;85.60;;;;;;5055644;28;20419;-64
2021/04/01 01:34:41;;;;;;;8.37;5.90;;;13.90;86.50;;;;;;5055471;28;20448;-64
2021/04/01 01:37:06;;;;;;;8.97;5.97;;;13.80;86.70;;;;;;5055334;28;20968;-65
2021/04/01 01:39:32;;;;;;;7.00;6.00;;;13.90;87.30;;;;;;5055664;28;20412;-65
2021/04/01 01:41:58;;;;;;;10.07;6.40;;;13.80;87.10;;;;;;5056067;28;20264;-64
2021/04/01 01:44:24;;;;;;;7.97;6.23;;;13.80;87.20;;;;;;5054808;28;20539;-64
2021/04/01 01:46:49;;;;;;;10.07;6.63;;;13.70;87.60;;;;;;5064269;28;20199;-65
2021/04/01 01:49:15;;;;;;;9.00;6.27;;;13.70;88.10;;;;;;5056585;28;20420;-64
2021/04/01 01:51:42;;;;;;;7.07;6.07;;;13.50;87.80;;;;;;5056675;28;20259;-63
2021/04/01 01:54:07;;;;;;;9.50;6.73;;;13.60;88.40;;;;;;5055573;28;20191;-64
2021/04/01 01:56:34;;;;;;;10.40;6.60;;;13.70;88.50;;;;;;5055048;28;20469;-64
2021/04/01 01:59:00;;;;;;;8.50;6.10;;;13.70;88.40;;;;;;5054658;28;20182;-64
2021/04/01 02:01:26;;;;;;;7.80;5.77;;;13.50;88.50;;;;;;5055068;28;20413;-64
2021/04/01 02:03:52;;;;;;;7.57;6.03;;;13.50;89.10;;;;;;5054704;28;20186;-64
2021/04/01 02:06:20;;;;;;;8.70;6.03;;;13.60;88.50;;;;;;5053313;28;20425;-64
2021/04/01 02:08:46;;;;;;;8.80;6.13;;;13.60;88.30;;;;;;5054546;28;20485;-64
2021/04/01 02:11:13;;;;;;;8.43;6.40;;;13.70;88.60;;;;;;5057277;28;20405;-64
2021/04/01 02:13:39;;;;;;;9.47;6.17;;;13.50;88.70;;;;;;5054272;28;20967;-62
2021/04/01 02:16:05;;;;;;;16.10;6.70;;;13.30;89.90;;;;;;5054848;28;20409;-64
2021/04/01 02:18:31;;;;;;;7.77;6.30;;;13.30;90.10;;;;;;5054637;28;20183;-64
2021/04/01 02:20:59;;;;;;;10.37;6.40;;;13.40;90.20;;;;;;5054290;28;20423;-64
2021/04/01 02:23:32;;;;;;;7.77;6.40;;;13.50;90.00;;;;;;5054421;28;20578;-63
2021/04/01 02:25:59;;;;;;;9.73;6.40;;;13.50;89.80;;;;;;5054695;28;20393;-65
2021/04/01 02:28:27;;;;;;;11.77;7.03;;;13.40;90.20;;;;;;5054193;28;20432;-65
2021/04/01 02:31:02;;;;;;;11.07;6.53;;;13.40;90.50;;;;;;5054167;28;20404;-65
2021/04/01 02:33:29;;;;;;;8.97;6.60;;;13.30;90.60;;;;;;5054385;28;20521;-65
2021/04/01 02:35:55;;;;;;;7.13;5.70;;;13.20;91.00;;;;;;5052581;28;20467;-65
2021/04/01 02:38:22;;;;;;;9.07;6.67;;;13.20;91.10;;;;;;5078253;23;20484;-64
2021/04/01 02:40:49;;;;;;;7.27;6.00;;;13.10;91.20;;;;;;5054094;28;20895;-65
2021/04/01 02:43:26;;;;;;;8.40;6.80;;;13.10;91.40;;;;;;5054026;28;20405;-66
2021/04/01 02:45:52;;;;;;;9.20;6.50;;;13.10;91.30;;;;;;5054135;28;20408;-65
2021/04/01 02:48:18;;;;;;;9.27;6.63;;;13.10;91.40;;;;;;5053698;28;20433;-66
2021/04/01 02:50:43;;;;;;;10.20;6.57;;;13.10;91.60;;;;;;5053226;28;20220;-65
2021/04/01 02:53:10;;;;;;;9.70;5.80;;;13.20;91.50;;;;;;5053616;28;20205;-66
2021/04/01 02:55:35;;;;;;;7.10;6.40;;;13.20;91.70;;;;;;5049790;28;20167;-66
2021/04/01 02:58:01;;;;;;;7.47;6.70;;;13.20;91.40;;;;;;5052406;28;20433;-66
2021/04/01 03:00:30;;;;;;;14.47;7.13;;;13.20;91.70;;;;;;5053248;28;20242;-66
2021/04/01 03:03:08;;;;;;;8.47;6.73;;;13.20;91.90;;;;;;5052818;28;20706;-66
2021/04/01 03:05:34;;;;;;;9.50;6.83;;;13.20;91.90;;;;;;5053733;28;20426;-66
2021/04/01 03:07:59;;;;;;;10.23;7.17;;;13.10;91.90;;;;;;5053211;28;20422;-65
2021/04/01 03:10:25;;;;;;;8.90;6.37;;;13.10;91.90;;;;;;5053580;28;20182;-66
2021/04/01 03:12:51;;;;;;;7.53;6.13;;;13.00;92.00;;;;;;5053300;28;20197;-66
2021/04/01 03:15:16;;;;;;;8.27;5.80;;;12.90;92.40;;;;;;5052951;28;20164;-66
2021/04/01 03:17:43;;;;;;;9.60;6.40;;;12.90;92.80;;;;;;5053366;28;20182;-66
2021/04/01 03:20:10;;;;;;;9.53;6.20;;;12.80;92.70;;;;;;5052998;28;20166;-66
2021/04/01 03:22:36;;;;;;;8.90;6.00;;;12.70;93.00;;;;;;5053404;28;20393;-66
2021/04/01 03:25:03;;;;;;;9.40;6.53;;;12.70;93.50;;;;;;5053406;28;20407;-66
2021/04/01 03:27:29;;;;;;;9.50;6.30;;;12.80;93.40;;;;;;5052961;28;20466;-64
2021/04/01 03:30:07;;;;;;;7.63;6.63;;;12.80;93.30;;;;;;5052896;28;20438;-65
2021/04/01 03:32:35;;;;;;;10.23;6.87;;;12.80;93.50;;;;;;5053207;28;20197;-65
2021/04/01 03:35:02;;;;;;;9.07;6.80;;;12.80;93.90;;;;;;5052057;28;20440;-64
2021/04/01 03:37:28;;;;;;;8.87;6.60;;;12.70;93.50;;;;;;5052505;28;20444;-64
2021/04/01 03:39:54;;;;;;;7.93;6.20;;;12.60;93.90;;;;;;5051948;28;20419;-64
2021/04/01 03:42:19;;;;;;;9.00;6.87;;;12.70;94.40;;;;;;5035162;28;20713;-64
2021/04/01 03:44:45;;;;;;;9.90;7.40;;;12.70;94.20;;;;;;5052900;28;20408;-64
2021/04/01 03:47:11;;;;;;;8.13;5.53;;;12.80;94.20;;;;;;5052810;28;20202;-64
2021/04/01 03:49:38;;;;;;;9.67;6.23;;;12.80;94.20;;;;;;5052514;28;20162;-65
2021/04/01 03:52:04;;;;;;;9.70;7.13;;;12.80;94.10;;;;;;5052578;28;20425;-65
2021/04/01 03:54:30;;;;;;;10.93;6.93;;;12.80;94.30;;;;;;5052779;28;20455;-64
2021/04/01 03:56:55;;;;;;;8.80;7.13;;;12.70;94.60;;;;;;5053050;28;20421;-64
2021/04/01 03:59:24;;;;;;;8.53;6.70;;;12.70;94.50;;;;;;5052886;28;20627;-64
2021/04/01 04:02:02;;;;;;;11.17;6.90;;;12.70;94.60;;;;;;5055789;28;20518;-64
2021/04/01 04:09:59;;;;;;;11.03;6.70;;;12.50;95.30;;;;;;5054982;28;20415;-64
2021/04/01 04:12:33;;;;;;;8.77;6.80;;;12.50;95.20;;;;;;5057442;28;20480;-65
2021/04/01 04:17:27;;;;;;;9.80;6.90;;;12.40;95.70;;;;;;5056489;28;20483;-65
2021/04/01 04:19:53;;;;;;;11.60;7.40;;;12.40;96.00;;;;;;5056126;28;20399;-65
2021/04/01 04:22:18;;;;;;;9.60;7.13;;;12.40;96.00;;;;;;5056410;28;20176;-65
2021/04/01 04:24:44;;;;;;;9.13;6.17;;;12.40;95.90;;;;;;5056408;28;20174;-64
2021/04/01 04:30:00;;;;;;;9.63;6.77;;;12.20;96.20;;;;;;5055694;28;20257;-65
2021/04/01 04:32:30;;;;;;;8.07;6.53;;;12.10;96.70;;;;;;5056257;28;20383;-65
2021/04/01 04:34:56;;;;;;;8.67;6.67;;;12.20;97.00;;;;;;5055238;28;20758;-65
2021/04/01 04:37:22;;;;;;;9.00;6.87;;;12.10;97.00;;;;;;5056039;28;20485;-65
2021/04/01 04:39:48;;;;;;;10.57;7.03;;;12.20;96.80;;;;;;5056058;28;20404;-65
2021/04/01 04:42:14;;;;;;;11.17;7.47;;;12.30;96.90;;;;;;5056391;28;20173;-65
2021/04/01 04:44:39;;;;;;;11.40;7.23;;;12.20;96.70;;;;;;5056124;28;20170;-65
2021/04/01 04:47:05;;;;;;;11.60;6.33;;;12.20;97.00;;;;;;5054822;28;20450;-65
2021/04/01 04:49:31;;;;;;;9.63;6.53;;;12.30;96.90;;;;;;5056163;28;20179;-65
2021/04/01 04:51:56;;;;;;;11.50;6.87;;;12.00;97.40;;;;;;5055916;28;20176;-65
2021/04/01 04:54:22;;;;;;;10.70;7.30;;;12.00;97.60;;;;;;5055895;28;20191;-64
2021/04/01 04:56:50;;;;;;;9.73;8.27;;;12.00;97.70;;;;;;5055985;28;20255;-65
2021/04/01 04:59:33;;;;;;;10.93;6.83;;;12.10;97.80;;;;;;5055820;28;20159;-65
2021/04/01 05:04:48;;;;;;;9.33;6.63;;;12.10;97.20;;;;;;5035606;28;20382;-65
2021/04/01 05:07:14;;;;;;;14.30;7.40;;;12.10;97.50;;;;;;5035553;28;20436;-65
2021/04/01 05:09:39;;;;;;;14.63;8.90;;;12.10;97.50;;;;;;5035602;28;20393;-65
2021/04/01 05:12:05;;;;;;;9.20;6.60;;;12.10;97.50;;;;;;5035521;28;20254;-65
2021/04/01 05:14:31;;;;;;;10.13;7.70;;;12.10;97.90;;;;;;5035358;28;20665;-65
2021/04/01 05:16:57;;;;;;;12.30;7.03;;;12.00;97.70;;;;;;5035971;28;20452;-65
2021/04/01 05:19:24;;;;;;;13.03;7.13;;;12.20;97.70;;;;;;5034934;28;20646;-65
2021/04/01 05:24:24;;;;;;;13.63;8.23;;;12.40;97.70;;;;;;5051867;28;20502;-65
2021/04/01 05:29:27;;;;;;;10.60;7.00;;;12.40;97.70;;;;;;5055811;28;20399;-65
2021/04/01 05:31:52;;;;;;;13.13;8.50;;;12.40;97.70;;;;;;5055113;28;20949;-65
2021/04/01 05:34:19;;;;;;;15.80;8.33;;;12.30;97.70;;;;;;5055347;28;20453;-65
2021/04/01 05:36:46;;;;;;;12.03;7.90;;;12.30;97.90;;;;;;5055108;28;20175;-65
2021/04/01 05:39:16;;;;;;;12.03;8.80;;;12.30;97.90;;;;;;5054555;28;20393;-65
2021/04/01 05:41:44;;;;;;;11.07;7.40;;;12.40;97.90;;;;;;5054900;28;20398;-65
2021/04/01 05:46:50;;;;;;;13.60;8.00;;;12.70;97.40;;;;;;5054798;28;20480;-64
2021/04/01 05:50:08;;;;;;;15.73;8.53;;;12.70;97.30;;;;;;5054225;28;20850;-64
2021/04/01 06:05:49;;;;;;;14.17;8.37;;;13.20;96.40;;;;;;5054512;28;20383;-65
2021/04/01 06:08:20;;;;;;;9.93;6.73;;;13.40;96.60;;;;;;5056578;28;20439;-66
2021/04/01 06:10:48;;;;;;;9.70;7.73;;;13.50;96.50;;;;;;5054778;28;20385;-65
2021/04/01 06:13:15;;;;;;;13.90;8.03;;;13.60;96.50;;;;;;5054296;28;20572;-65
2021/04/01 06:15:46;;;;;;;11.43;7.90;;;13.70;95.90;;;;;;5054279;28;20928;-65
2021/04/01 06:18:14;;;;;;;18.40;9.63;;;13.80;96.30;;;;;;5054480;28;20932;-65
2021/04/01 06:20:44;;;;;;;14.43;8.83;;;13.90;96.40;;;;;;5054276;28;20773;-65
2021/04/01 06:23:31;;;;;;;17.23;9.23;;;14.00;96.50;;;;;;5054173;28;20792;-65
2021/04/01 06:25:59;;;;;;;9.60;8.60;;;14.00;96.30;;;;;;5053642;28;20414;-65
2021/04/01 06:28:43;;;;;;;10.47;8.40;;;14.10;96.50;;;;;;5054073;28;20512;-65
2021/04/01 06:31:11;;;;;;;11.30;7.63;;;14.20;96.60;;;;;;5053461;28;20790;-65
2021/04/01 06:33:57;;;;;;;13.37;8.27;;;14.20;96.40;;;;;;5053768;28;20446;-65
2021/04/01 06:36:27;;;;;;;17.03;8.73;;;14.40;96.30;;;;;;5054472;28;20387;-66
2021/04/01 06:38:53;;;;;;;11.53;7.70;;;14.50;95.70;;;;;;5034429;28;20432;-66
2021/04/01 06:41:24;;;;;;;12.45;7.28;;;14.80;96.00;;;;;;5053008;28;20480;-65
2021/04/01 06:43:56;;;;;;;7.80;7.00;;;15.20;95.80;;;;;;5053913;28;20231;-65
2021/04/01 06:46:25;;;;;;;7.70;6.80;;;15.30;95.10;;;;;;5054067;28;20404;-63
2021/04/01 06:51:59;;;;;;;14.50;8.30;;;15.40;94.50;;;;;;5022476;28;20406;-64
2021/04/01 06:54:34;;;;;;;9.07;8.17;;;15.60;94.00;;;;;;5052881;28;20444;-63
2021/04/01 06:57:34;;;;;;;12.13;8.03;;;15.90;93.50;;;;;;5053490;28;20518;-65
2021/04/01 07:00:22;;;;;;;12.70;8.67;;;16.20;93.60;;;;;;5054065;28;20381;-63
2021/04/01 07:03:10;;;;;;;12.23;7.77;;;16.30;93.00;;;;;;5053302;28;20389;-64
2021/04/01 07:05:53;;;;;;;10.43;7.93;;;16.40;92.40;;;;;;5053528;28;20473;-63
2021/04/01 07:08:30;;;;;;;12.63;7.73;;;16.50;92.00;;;;;;5053428;28;20449;-63
2021/04/01 07:13:36;;;;;;;11.50;8.57;;;16.70;91.50;;;;;;5053555;28;20460;-63
2021/04/01 07:16:24;;;;;;;15.43;9.70;;;16.80;91.70;;;;;;5053321;28;20387;-63
2021/04/01 07:44:56;;;;;;;14.13;10.30;;;17.10;89.40;;;;;;5032601;28;20809;-62
2021/04/01 07:50:25;;;;;;;14.47;8.70;;;16.60;90.10;;;;;;5052566;28;20487;-63
2021/04/01 07:52:58;;;;;;;12.80;10.97;;;16.70;89.30;;;;;;5052719;28;20888;-63
2021/04/01 07:55:45;;;;;;;13.00;9.90;;;17.10;89.30;;;;;;5052685;28;20415;-63
2021/04/01 08:06:08;;;;;;;11.63;9.50;;;18.30;86.60;;;;;;5053202;28;20496;-63
2021/04/01 08:08:37;;;;;;;10.40;9.20;;;18.30;86.30;;;;;;5055228;28;20889;-62
2021/04/01 08:11:06;;;;;;;13.83;9.53;;;18.40;86.40;;;;;;5052965;28;20440;-62
2021/04/01 08:13:36;;;;;;;15.23;10.00;;;18.40;85.90;;;;;;5051528;28;20527;-62
2021/04/01 08:16:06;;;;;;;18.03;8.77;;;18.50;85.50;;;;;;5053338;28;20386;-63
2021/04/01 08:18:36;;;;;;;13.23;10.00;;;18.80;85.80;;;;;;5052922;28;20433;-63
2021/04/01 08:21:05;;;;;;;16.47;10.00;;;19.00;84.70;;;;;;5052823;28;20397;-64
2021/04/01 08:23:34;;;;;;;11.60;9.33;;;19.10;84.30;;;;;;5051731;28;20451;-62
2021/04/01 08:26:27;;;;;;;18.10;10.60;;;19.00;84.30;;;;;;5052688;28;20409;-63
2021/04/01 08:29:15;;;;;;;15.60;10.37;;;18.90;85.00;;;;;;5052629;28;20780;-62
2021/04/01 08:31:59;;;;;;;12.27;9.20;;;18.70;84.30;;;;;;5052068;28;20389;-63
2021/04/01 08:36:54;;;;;;;14.50;10.40;;;18.50;84.70;;;;;;5052683;28;20433;-64
2021/04/01 08:39:22;;;;;;;12.73;9.47;;;18.30;85.70;;;;;;5064343;23;20561;-61
2021/04/01 08:42:06;;;;;;;19.17;10.67;;;18.60;85.30;;;;;;5055634;28;20393;-60
2021/04/01 08:44:50;;;;;;;13.33;10.07;;;18.80;85.30;;;;;;5055234;28;20466;-61
2021/04/01 08:47:52;;;;;;;25.07;10.80;;;18.90;84.50;;;;;;5055838;28;20393;-61
2021/04/01 08:50:56;;;;;;;14.07;10.37;;;19.30;84.30;;;;;;5055802;28;20385;-61
2021/04/01 08:53:38;;;;;;;12.27;9.00;;;19.50;83.80;;;;;;5025073;28;20452;-60
2021/04/01 08:56:25;;;;;;;18.70;10.10;;;19.80;83.10;;;;;;5059480;28;20393;-59
2021/04/01 08:58:56;;;;;;;16.13;9.77;;;20.00;82.60;;;;;;5059440;28;21025;-60
2021/04/01 09:01:28;;;;;;;28.80;12.33;;;20.30;81.90;;;;;;5058728;28;20386;-60
2021/04/01 09:03:59;;;;;;;12.10;9.23;;;20.50;81.20;;;;;;5059138;28;20417;-61
2021/04/01 09:06:31;;;;;;;12.53;9.50;;;20.50;80.90;;;;;;5058998;28;20389;-61
2021/04/01 09:09:11;;;;;;;13.17;8.60;;;20.60;80.90;;;;;;5057618;28;20864;-60
2021/04/01 09:12:05;;;;;;;12.43;7.70;;;20.60;80.80;;;;;;5038312;28;20811;-60
2021/04/01 09:14:33;;;;;;;14.80;8.63;;;21.00;80.60;;;;;;5038621;28;20464;-61
2021/04/01 09:17:16;;;;;;;15.53;7.60;;;21.20;78.60;;;;;;5037922;28;20409;-60
2021/04/01 09:19:44;;;;;;;11.83;6.43;;;21.40;78.20;;;;;;5020259;28;20412;-60
2021/04/01 09:22:30;;;;;;;7.70;5.90;;;21.40;76.10;;;;;;5037929;28;20405;-59
2021/04/01 09:25:03;;;;;;;7.80;5.83;;;21.40;76.50;;;;;;5037687;28;20386;-60
2021/04/01 09:27:29;;;;;;;11.07;6.27;;;21.30;75.50;;;;;;5037976;28;20512;-61
2021/04/01 09:30:09;;;;;;;9.07;6.07;;;21.20;75.30;;;;;;5038168;28;20414;-61
2021/04/01 09:32:37;;;;;;;8.47;6.07;;;21.00;76.10;;;;;;5037829;28;20406;-61
2021/04/01 09:35:05;;;;;;;8.10;5.60;;;21.40;75.90;;;;;;5038010;28;20846;-61
2021/04/01 09:37:31;;;;;;;12.17;7.10;;;21.60;75.60;;;;;;5036667;28;20499;-59
2021/04/01 09:40:11;;;;;;;9.30;5.53;;;21.40;74.80;;;;;;5044909;28;20401;-61
2021/04/01 09:42:46;;;;;;;9.10;5.77;;;21.70;74.50;;;;;;5058422;28;20389;-62
2021/04/01 09:45:13;;;;;;;10.23;6.20;;;21.80;73.90;;;;;;5057782;28;20389;-61
2021/04/01 09:47:46;;;;;;;11.97;7.67;;;21.70;74.40;;;;;;5057187;28;20460;-61
2021/04/01 09:50:14;;;;;;;9.47;7.00;;;21.40;73.80;;;;;;5057006;28;20451;-61
2021/04/01 09:52:51;;;;;;;12.80;7.00;;;21.20;74.70;;;;;;5056805;28;20426;-61
2021/04/01 09:55:17;;;;;;;17.80;7.00;;;21.20;75.40;;;;;;5057791;28;20472;-61
2021/04/01 09:57:49;;;;;;;14.83;8.07;;;21.00;75.80;;;;;;5056909;28;20456;-60
2021/04/01 10:03:22;;;;;;;13.70;7.63;;;21.30;76.20;;;;;;5056571;28;20370;-61
2021/04/01 10:05:48;;;;;;;17.50;8.17;;;21.50;76.90;;;;;;5055792;28;20450;-59
2021/04/01 10:08:36;;;;;;;11.47;7.47;;;21.60;74.80;;;;;;5056709;28;20492;-61
2021/04/01 10:11:07;;;;;;;10.10;7.33;;;21.80;73.90;;;;;;5056502;28;20389;-61
2021/04/01 10:13:33;;;;;;;10.47;7.20;;;21.70;74.30;;;;;;5057151;28;20445;-58
2021/04/01 10:15:59;;;;;;;9.80;7.27;;;21.80;74.10;;;;;;5056175;28;20462;-59
2021/04/01 10:18:34;;;;;;;7.80;6.53;;;21.80;73.50;;;;;;5055456;28;20448;-60
2021/04/01 10:21:05;;;;;;;14.17;7.60;;;21.80;73.60;;;;;;5055279;28;20504;-61
2021/04/01 10:23:52;;;;;;;16.30;6.63;;;21.90;73.80;;;;;;5056657;28;20425;-61
2021/04/01 10:26:21;;;;;;;11.50;7.03;;;22.10;75.00;;;;;;5056370;28;20378;-60
2021/04/01 10:28:59;;;;;;;12.37;6.67;;;22.10;72.90;;;;;;5055666;28;20425;-60
2021/04/01 10:31:25;;;;;;;13.73;8.17;;;22.30;73.70;;;;;;5056109;28;20442;-61
2021/04/01 10:34:02;;;;;;;10.17;6.10;;;22.50;73.50;;;;;;5056058;28;20807;-61
2021/04/01 10:36:29;;;;;;;10.43;5.43;;;22.60;70.90;;;;;;5056118;28;20761;-61
2021/04/01 10:39:08;;;;;;;6.77;5.60;;;22.70;70.20;;;;;;5056294;28;20483;-59
2021/04/01 10:41:47;;;;;;;9.40;5.70;;;22.50;71.30;;;;;;5056652;28;20408;-61
2021/04/01 10:44:13;;;;;;;8.00;5.80;;;22.60;70.00;;;;;;5056897;28;20447;-61
2021/04/01 10:46:56;;;;;;;9.77;6.30;;;22.70;70.10;;;;;;5056010;28;20429;-61
2021/04/01 10:49:28;;;;;;;5.67;5.03;;;22.80;70.40;;;;;;5055755;28;20844;-61
2021/04/01 10:52:00;;;;;;;16.13;6.20;;;23.20;69.20;;;;;;5055884;28;20420;-61
2021/04/01 10:54:41;;;;;;;13.27;5.40;;;23.70;70.80;;;;;;5055366;28;20494;-61
2021/04/01 10:57:09;;;;;;;9.53;5.93;;;24.50;68.70;;;;;;5055948;28;20432;-61
2021/04/01 10:59:36;;;;;;;5.90;5.17;;;25.50;66.40;;;;;;5055171;28;20980;-61
2021/04/01 11:02:09;;;;;;;7.13;4.80;;;26.40;62.50;;;;;;5054765;28;20898;-61
2021/04/01 11:04:35;;;;;;;10.10;5.70;;;27.60;60.00;;;;;;5055109;28;20528;-60
2021/04/01 11:07:03;;;;;;;7.73;4.77;;;27.50;57.30;;;;;;5054918;28;20416;-60
2021/04/01 11:09:30;;;;;;;7.57;5.00;;;28.20;56.50;;;;;;5054859;28;20469;-61
2021/04/01 11:12:17;;;;;;;9.97;5.30;;;29.10;54.50;;;;;;5055054;28;20405;-61
2021/04/01 11:14:51;;;;;;;8.30;4.70;;;29.00;53.40;;;;;;5055804;28;20491;-60
2021/04/01 11:17:23;;;;;;;4.97;4.53;;;29.30;53.90;;;;;;5055872;28;20399;-61
2021/04/01 11:19:52;;;;;;;8.30;4.53;;;30.60;51.50;;;;;;5055478;28;20401;-61
2021/04/01 11:22:18;;;;;;;7.33;4.13;;;30.30;49.50;;;;;;5055050;28;20399;-60
2021/04/01 11:24:44;;;;;;;7.70;4.50;;;29.90;50.10;;;;;;5055121;28;20499;-61
2021/04/01 11:27:11;;;;;;;5.00;3.73;;;29.80;48.80;;;;;;5055477;28;20154;-61
2021/04/01 11:29:40;;;;;;;7.63;4.10;;;30.00;48.50;;;;;;5054886;28;20405;-61
2021/04/01 11:32:19;;;;;;;4.30;3.77;;;31.30;47.10;;;;;;5054666;28;20408;-61
2021/04/01 11:34:46;;;;;;;7.17;3.30;;;30.50;46.60;;;;;;5055119;28;20835;-61
2021/04/01 11:37:17;;;;;;;5.67;3.07;;;30.00;47.20;;;;;;5053705;28;20417;-60
2021/04/01 11:39:42;;;;;;;4.80;3.03;;;30.30;47.10;;;;;;5053842;28;20385;-62
2021/04/01 11:42:13;;;;;;;5.80;3.73;;;30.90;46.60;;;;;;5054575;28;20882;-62
2021/04/01 11:44:40;;;;;;;5.37;3.53;;;31.60;45.80;;;;;;5053792;28;20155;-62
2021/04/01 11:47:21;;;;;;;6.40;3.27;;;32.50;45.10;;;;;;5053498;28;20484;-62
2021/04/01 11:49:48;;;;;;;6.40;3.47;;;33.10;42.10;;;;;;5016078;28;20390;-62
2021/04/01 11:52:19;;;;;;;9.77;4.47;;;31.40;43.60;;;;;;5033831;28;20889;-61
2021/04/01 11:54:47;;;;;;;3.80;3.00;;;31.30;44.00;;;;;;5033733;28;20430;-62
2021/04/01 11:57:19;;;;;;;6.23;3.30;;;33.50;41.80;;;;;;5033624;28;20904;-59
2021/04/01 11:59:59;;;;;;;8.57;3.20;;;33.10;41.30;;;;;;5033111;28;20406;-62
2021/04/01 12:02:26;;;;;;;5.77;3.10;;;34.10;40.40;;;;;;5015395;28;20410;-61
2021/04/01 12:04:55;;;;;;;3.57;3.17;;;35.30;39.30;;;;;;5032851;28;20823;-62
2021/04/01 12:07:21;;;;;;;10.33;3.40;;;34.80;38.10;;;;;;5033401;28;20426;-62
2021/04/01 12:09:51;;;;;;;6.10;3.33;;;34.20;38.40;;;;;;5033703;28;20406;-63
2021/04/01 12:12:33;;;;;;;6.20;3.17;;;33.30;39.60;;;;;;5053384;28;20163;-62
2021/04/01 12:15:01;;;;;;;4.17;2.90;;;33.10;40.80;;;;;;5053258;28;20444;-62
2021/04/01 12:17:34;;;;;;;5.37;3.13;;;33.20;39.50;;;;;;5052981;28;20413;-61
2021/04/01 12:20:01;;;;;;;6.10;3.30;;;32.80;39.90;;;;;;5053025;28;20388;-62
2021/04/01 12:22:31;;;;;;;6.47;3.30;;;33.20;39.50;;;;;;5053566;28;20922;-62
2021/04/01 12:24:58;;;;;;;6.63;2.80;;;32.70;39.70;;;;;;5053705;28;20439;-61
2021/04/01 12:27:31;;;;;;;5.97;3.03;;;31.50;40.70;;;;;;5053469;28;20460;-61
2021/04/01 12:29:58;;;;;;;5.10;3.20;;;32.20;40.70;;;;;;5055615;28;20405;-62
2021/04/01 12:32:31;;;;;;;8.23;3.20;;;31.90;41.20;;;;;;5056728;28;20397;-61
2021/04/01 12:35:06;;;;;;;4.07;3.10;;;32.30;39.80;;;;;;5056743;28;20520;-61
2021/04/01 12:37:33;;;;;;;7.30;3.30;;;32.60;40.90;;;;;;5056816;28;20853;-61
2021/04/01 12:40:12;;;;;;;3.60;2.77;;;32.70;39.60;;;;;;5056896;28;20846;-62
2021/04/01 12:42:38;;;;;;;6.30;2.63;;;33.30;39.50;;;;;;5056623;28;20408;-62
2021/04/01 12:45:33;;;;;;;10.27;3.40;;;34.30;38.30;;;;;;5056612;28;20397;-62
2021/04/01 12:48:08;;;;;;;4.27;2.93;;;34.90;36.80;;;;;;5056021;28;20697;-61
2021/04/01 12:50:37;;;;;;;3.77;2.50;;;33.80;37.40;;;;;;5056568;28;20434;-61
2021/04/01 12:53:04;;;;;;;4.60;2.90;;;32.70;38.50;;;;;;5056464;28;20764;-62
2021/04/01 12:55:44;;;;;;;4.03;2.67;;;32.00;40.00;;;;;;5056442;28;20405;-62
2021/04/01 12:58:33;;;;;;;3.80;3.40;;;32.20;39.10;;;;;;5056500;28;20454;-61
2021/04/01 13:03:48;;;;;;;4.13;2.57;;;32.90;38.30;;;;;;5056326;28;20937;-62
2021/04/01 13:06:23;;;;;;;4.20;2.73;;;33.40;37.40;;;;;;5055971;28;20425;-61
2021/04/01 13:11:18;;;;;;;4.00;2.20;;;32.60;38.20;;;;;;5056071;28;20409;-61
2021/04/01 13:13:44;;;;;;;6.77;2.93;;;31.80;38.40;;;;;;5056140;28;20909;-62
2021/04/01 13:16:10;;;;;;;6.00;3.13;;;30.90;39.10;;;;;;5055993;28;20403;-62
2021/04/01 13:18:36;;;;;;;5.07;3.30;;;30.10;40.30;;;;;;5056089;28;20524;-61
2021/04/01 13:21:03;;;;;;;5.73;3.30;;;28.80;41.80;;;;;;5056034;28;20412;-61
2021/04/01 13:25:57;;;;;;;7.20;3.50;;;28.00;43.00;;;;;;5057061;28;20413;-61
2021/04/01 13:28:23;;;;;;;6.30;3.47;;;28.10;43.10;;;;;;5056082;28;20447;-61
2021/04/01 13:30:55;;;;;;;3.17;2.77;;;28.50;43.20;;;;;;5055659;28;20496;-61
2021/04/01 13:33:32;;;;;;;5.67;3.60;;;29.10;43.20;;;;;;5055712;28;20232;-62
2021/04/01 13:36:07;;;;;;;7.67;3.53;;;28.70;43.90;;;;;;5056189;28;20460;-61
2021/04/01 13:38:39;;;;;;;9.23;3.70;;;28.30;44.70;;;;;;5056155;28;20821;-61
2021/04/01 13:41:05;;;;;;;7.43;3.43;;;27.70;45.50;;;;;;5056297;28;20388;-61
2021/04/01 13:43:31;;;;;;;9.47;4.20;;;26.90;46.40;;;;;;5056660;28;20397;-62
2021/04/01 13:45:58;;;;;;;5.97;3.70;;;27.10;46.80;;;;;;5055847;28;20548;-61
2021/04/01 13:48:27;;;;;;;5.23;3.70;;;26.90;46.40;;;;;;5055398;28;20506;-61
2021/04/01 13:51:02;;;;;;;6.30;4.27;;;26.90;46.20;;;;;;5055150;28;20496;-61
2021/04/01 13:56:21;;;;;;;9.93;3.40;;;27.40;45.00;;;;;;5056301;28;20516;-61
2021/04/01 14:09:48;;;;;;;6.00;3.07;;;27.50;45.90;;;;;;5057654;28;20432;-60
2021/04/01 14:12:18;;;;;;;5.70;3.73;;;28.40;44.40;;;;;;5058356;28;20420;-60
2021/04/01 14:14:44;;;;;;;6.10;3.50;;;28.90;43.80;;;;;;5057840;28;20441;-61
2021/04/01 14:17:11;;;;;;;5.50;4.63;;;29.20;42.90;;;;;;5056445;28;20762;-60
2021/04/01 14:19:39;;;;;;;6.73;3.60;;;28.30;43.90;;;;;;5057490;28;20171;-61
2021/04/01 14:22:05;;;;;;;8.63;5.10;;;27.80;44.70;;;;;;5058003;28;20398;-61
2021/04/01 14:24:45;;;;;;;7.60;4.07;;;27.60;45.00;;;;;;5055866;28;20410;-61
2021/04/01 14:29:43;;;;;;;5.23;4.07;;;26.90;46.30;;;;;;5055540;28;20447;-61
2021/04/01 14:32:11;;;;;;;7.47;5.00;;;27.20;46.20;;;;;;5055641;28;20405;-61
2021/04/01 14:34:39;;;;;;;8.93;5.27;;;27.50;44.70;;;;;;5056004;28;20256;-61
2021/04/01 14:37:06;;;;;;;4.87;4.20;;;27.70;44.50;;;;;;5055744;28;20881;-62
2021/04/01 14:39:32;;;;;;;5.80;4.20;;;27.70;45.40;;;;;;5030620;23;20499;-64
2021/04/01 14:42:08;;;;;;;6.90;4.73;;;28.20;44.60;;;;;;5014717;28;20411;-65
2021/04/01 14:44:34;;;;;;;5.43;4.90;;;28.40;43.90;;;;;;5014295;28;20572;-65
2021/04/01 14:47:01;;;;;;;5.70;4.87;;;27.80;43.60;;;;;;5013223;28;20419;-64